LPPD Airport Information

Runway Information
Runway 12 Length 8192 ft width 148 ft
Elevation 259 ft Threshold 0 ft Heading 112
Runway 30 Length 8192 ft Width 148 ft
Elevation 187 ft Threshold 787 ft Heading 292
Airport Frequencies
Type APP Name APP Frequency 119.4 MHZ
Type TWR Name TWR Frequency 118.3 MHZ
Airport Navaids
Type NDB Name Ponta Delgada Frequency 371 KHZ
Type NDB Name Ponta Delgada Frequency 351 KHZ
Type VORTAC Name Sao Miguel Frequency 114500 KHZ
Airport Weather Information & NOTAM
ADDS - METARS form results

(0527 UTC 07 March 2021)
Data provider http://aviationweather.gov/metar/data/
 
METAR text: LPPD 070500Z 29014KT 9999 FEW008 BKN030 16/15 Q1029
Conditions at: LPPD (PONTA DELGADA/NO, PT) observed 0500 UTC 07 March 2021
Temperature: 16.0°C (61°F)
Dewpoint: 15.0°C (59°F) [RH = 94%]
Pressure (altimeter): 30.38 inches Hg (1029.0 mb)
Winds: from the WNW (290 degrees) at 16 MPH (14 knots; 7.2 m/s)
Visibility: 6 or more miles (10+ km)
Ceiling: 3000 feet AGL
Clouds: few clouds at 800 feet AGL
broken clouds at 3000 feet AGL
Weather: no significant weather observed at this time

METAR text: LPPD 070430Z 29015KT 9999 FEW008 BKN030 16/15 Q1030
Conditions at: LPPD (PONTA DELGADA/NO, PT) observed 0430 UTC 07 March 2021
Temperature: 16.0°C (61°F)
Dewpoint: 15.0°C (59°F) [RH = 94%]
Pressure (altimeter): 30.41 inches Hg (1030.0 mb)
Winds: from the WNW (290 degrees) at 17 MPH (15 knots; 7.7 m/s)
Visibility: 6 or more miles (10+ km)
Ceiling: 3000 feet AGL
Clouds: few clouds at 800 feet AGL
broken clouds at 3000 feet AGL
Weather: no significant weather observed at this time

Forecast for: LPPD (PONTA DELGADA/NO, PT)
Text: TAF LPPD 070500Z 0706/0806 30013KT 9999 FEW008 BKN030
Forecast period: 0600 UTC 07 March 2021 to 0600 UTC 08 March 2021
Forecast type: FROM: standard forecast or significant change
Winds: from the WNW (300 degrees) at 15 MPH (13 knots; 6.7 m/s)
Visibility: 6 or more miles (10+ km)
Ceiling: 3000 feet AGL
Clouds: few clouds at 800 feet AGL
broken clouds at 3000 feet AGL
Weather: no significant weather forecast for this period
Text: TEMPO 0706/0712 2000 DZ BR BKN005
Forecast period: 0600 to 1200 UTC 07 March 2021
Forecast type: TEMPORARY: The following changes expected for less than half the time period
Visibility: 1.24 miles (2.00 km)
Ceiling: 500 feet AGL
Clouds: broken clouds at 500 feet AGL
Weather: DZ BR  (moderate drizzle, mist)